N907DB / N907DB 7700 Squawk Report (20th of March, 2019)

Time Lat Lon Altitude Heading Speed Vertical Rate
2019-03-20 14:30:53 GMT 51.898575 -0.252395 200 326 275 -960
2019-03-20 14:30:53 GMT 51.898575 -0.252395 1,400 301 526 -600
2019-03-20 14:30:42 GMT 51.902615 -0.226329 1,500 201 349 -360
2019-03-20 14:30:24 GMT 51.902615 -0.226329 1,700 217 134 -540
2019-03-20 14:30:13 GMT 51.903400 -0.201990 1,800 303 69 -300
2019-03-20 14:30:01 GMT 51.903400 -0.201990 1,900 215 136 -1020
2019-03-20 14:29:49 GMT 51.905869 -0.191100 2,100 230 98 -840
2019-03-20 14:29:39 GMT 51.907177 -0.182184 2,200 229 87 -420
2019-03-20 14:29:28 GMT 51.912868 -0.163294 2,400 241 131 0
2019-03-20 14:29:17 GMT 51.912868 -0.163294 2,500 203 126 420
2019-03-20 14:29:07 GMT 51.917721 -0.155874 2,500 223 63 0
2019-03-20 14:28:57 GMT 51.921959 -0.148240 2,400 240 129 0
2019-03-20 14:28:47 GMT 51.926399 -0.143111 2,400 199 122 -1080
2019-03-20 14:28:37 GMT 51.933426 -0.137820 2,400 182 98 -2580
2019-03-20 14:28:25 GMT 51.942307 -0.137198 2,500 145 199 -2160
2019-03-20 14:28:15 GMT 51.950062 -0.144982 2,600 172 146 -1980
2019-03-20 14:28:04 GMT 51.955780 -0.159778 2,900 185 178 -960
2019-03-20 14:27:54 GMT 51.956989 -0.175552 3,300 36 286 -1860
2019-03-20 14:27:44 GMT 51.958630 -0.191763 3,800 77 268 -1680
2019-03-20 14:27:33 GMT 51.956749 -0.214631 4,200 36 107 -1440
2019-03-20 14:27:21 GMT 51.945000 -0.242647 4,600 103 174 -1500
2019-03-20 14:26:58 GMT 51.953030 -0.270872 5,200 67 247 -480
2019-03-20 14:26:48 GMT 51.951195 -0.287093 5,500 87 244 -2280
2019-03-20 14:26:38 GMT 51.950577 -0.303844 5,800 102 262 -1800
2019-03-20 14:26:27 GMT 51.956459 -0.337061 6,200 127 288 -2760
2019-03-20 14:26:17 GMT 51.956459 -0.337061 6,600 125 230 -2760
2019-03-20 14:26:06 GMT 51.963028 -0.350809 7,000 131 263 -1560
2019-03-20 14:25:56 GMT 51.964260 -0.364547 7,300 148 265 -420
2019-03-20 14:25:45 GMT 51.974316 -0.376011 7,600 133 148 -480
2019-03-20 14:25:35 GMT 51.978863 -0.385003 7,800 132 162 0
2019-03-20 14:25:25 GMT 51.988800 -0.403958 7,900 130 171 0
2019-03-20 14:25:14 GMT 51.988800 -0.403958 7,900 131 173 -360
2019-03-20 14:25:02 GMT 51.995197 -0.418155 7,900 132 177 -1380
2019-03-20 14:24:51 GMT 52.001507 -0.430653 8,000 130 215 -2280
2019-03-20 14:24:40 GMT 52.008259 -0.443835 8,200 128 212 -4680
2019-03-20 14:24:30 GMT 52.014790 -0.457101 8,700 134 196 -2760
2019-03-20 14:24:19 GMT 52.021675 -0.472141 9,300 128 209 -5100
2019-03-20 14:24:09 GMT 52.027687 -0.484508 9,600 129 219 -3000
2019-03-20 14:23:59 GMT 52.034515 -0.497957 10,200 129 215 -2460
2019-03-20 14:23:49 GMT 52.040382 -0.509992 10,700 140 182 -2280
2019-03-20 14:23:38 GMT 52.047382 -0.524090 11,300 130 201 -2460
2019-03-20 14:23:28 GMT 52.053295 -0.536642 11,700 130 210 -1380
2019-03-20 14:23:17 GMT 52.059795 -0.550008 12,100 129 208 -1080
2019-03-20 14:23:06 GMT 52.072891 -0.575805 12,400 112 282 -1500
2019-03-20 14:22:55 GMT 52.072891 -0.575805 12,600 132 207 -1380
2019-03-20 14:22:44 GMT 52.078903 -0.587911 13,000 125 237 -2760
2019-03-20 14:22:34 GMT 52.085697 -0.601939 13,100 132 205 -1260
2019-03-20 14:22:24 GMT 52.091576 -0.614153 13,500 125 228 -1500
2019-03-20 14:22:14 GMT 52.097919 -0.628641 13,700 130 177 -1500
2019-03-20 14:22:04 GMT 52.110699 -0.654854 14,000 130 240 -1380
2019-03-20 14:21:53 GMT 52.116322 -0.666934 14,200 117 150 -1500
2019-03-20 14:21:43 GMT 52.116322 -0.666934 14,500 131 210 -840
2019-03-20 14:21:32 GMT 52.129368 -0.694383 14,800 125 215 -1380
2019-03-20 14:21:22 GMT 52.135567 -0.706550 15,000 128 223 -1500
2019-03-20 14:21:12 GMT 52.141712 -0.719253 15,300 125 209 -1260
2019-03-20 14:21:02 GMT 52.141712 -0.719253 15,500 131 226 -1500
2019-03-20 14:20:52 GMT 52.148144 -0.732769 15,800 129 224 -1380
2019-03-20 14:20:41 GMT 52.161198 -0.758783 16,000 129 221 -2520
2019-03-20 14:20:31 GMT 52.161198 -0.758783 16,200 129 217 0
2019-03-20 14:20:21 GMT 52.168571 -0.772118 16,600 124 217 -840
2019-03-20 14:20:11 GMT 52.174271 -0.785677 16,700 128 219 -1380
2019-03-20 14:20:00 GMT 52.181419 -0.799618 17,000 132 221 -1500
2019-03-20 14:19:50 GMT 52.187836 -0.812656 17,300 132 193 -3000
2019-03-20 14:19:40 GMT 52.194016 -0.825868 17,600 129 212 0
2019-03-20 14:19:30 GMT 52.200191 -0.838367 17,800 130 219 -1200
2019-03-20 14:19:18 GMT 52.208145 -0.854533 18,100 127 219 -1260
2019-03-20 14:19:06 GMT 52.221642 -0.884366 18,500 124 223 -2400
2019-03-20 14:18:55 GMT 52.228855 -0.897226 18,800 128 250 -960
2019-03-20 14:18:45 GMT 52.228855 -0.897226 19,000 128 218 -960
2019-03-20 14:18:35 GMT 52.235897 -0.910647 19,200 129 206 -1980
2019-03-20 14:18:25 GMT 52.242302 -0.922552 19,400 134 216 -1980
2019-03-20 14:18:15 GMT 52.258305 -0.947844 19,800 136 218 -420
2019-03-20 14:18:04 GMT 52.258305 -0.947844 19,900 134 239 -1500
2019-03-20 14:17:54 GMT 52.266518 -0.958198 20,300 139 207 -1500
2019-03-20 14:17:44 GMT 52.273361 -0.971692 20,400 140 232 -2760
2019-03-20 14:17:33 GMT 52.282322 -0.984594 20,700 139 210 -1500
2019-03-20 14:17:23 GMT 52.289608 -0.996392 20,900 130 246 -1380
2019-03-20 14:17:12 GMT 52.305855 -1.024387 21,300 129 281 -1500
2019-03-20 14:17:02 GMT 52.305855 -1.024387 21,500 144 209 -1500
2019-03-20 14:16:52 GMT 52.312370 -1.032083 21,800 147 268 -1500
2019-03-20 14:16:40 GMT 52.334057 -1.052226 22,000 152 251 -900
2019-03-20 14:16:30 GMT 52.334057 -1.052226 22,300 171 227 -1260
2019-03-20 14:16:20 GMT 52.344593 -1.054975 22,500 194 215 -1260
2019-03-20 14:16:09 GMT 52.356079 -1.049315 22,800 223 216 -1260
2019-03-20 14:15:57 GMT 52.366199 -1.038457 23,100 228 201 -3000
2019-03-20 14:15:47 GMT 52.373070 -1.025602 23,400 219 218 480
2019-03-20 14:15:37 GMT 52.381512 -1.014013 23,600 224 193 -1500
2019-03-20 14:15:27 GMT 52.388657 -1.002529 23,900 238 220 0
2019-03-20 14:15:16 GMT 52.396408 -0.989553 24,100 214 274 -900
2019-03-20 14:15:05 GMT 52.403557 -0.979206 24,400 230 277 -900
2019-03-20 14:14:54 GMT 52.412712 -0.960797 24,600 236 217 -960
2019-03-20 14:14:44 GMT 52.418446 -0.944680 24,700 249 247 -840
2019-03-20 14:14:34 GMT 52.424480 -0.929394 24,900 273 278 -840
2019-03-20 14:14:24 GMT 52.419319 -0.889559 25,100 289 255 -960
2019-03-20 14:14:14 GMT 52.419319 -0.889559 25,300 301 238 -1500
2019-03-20 14:14:04 GMT 52.413425 -0.874172 25,500 309 214 -1380
2019-03-20 14:13:53 GMT 52.405121 -0.860839 25,700 325 245 -1380
2019-03-20 14:13:42 GMT 52.396713 -0.847082 26,000 336 278 -1380
2019-03-20 14:13:31 GMT 52.384689 -0.834798 26,300 331 234 -1500
2019-03-20 14:13:21 GMT 52.366898 -0.816657 26,600 324 244 -900
2019-03-20 14:13:10 GMT 52.366898 -0.816657 26,800 321 218 -900
2019-03-20 14:12:59 GMT 52.357319 -0.804475 27,100 317 233 -1500
2019-03-20 14:12:49 GMT 52.341129 -0.783189 27,400 325 207 -900
2019-03-20 14:12:38 GMT 52.341129 -0.783189 27,600 320 211 -960
2019-03-20 14:12:28 GMT 52.333942 -0.772057 27,800 339 193 -600
2019-03-20 14:12:18 GMT 52.326252 -0.764370 27,900 332 195 0
2019-03-20 14:12:00 GMT 52.311962 -0.751676 28,000 318 197 0
2019-03-20 14:11:49 GMT 52.303822 -0.742804 28,000 322 189 0
2019-03-20 14:11:39 GMT 52.296631 -0.736030 28,000 337 208 0
2019-03-20 14:11:29 GMT 52.287975 -0.726628 28,000 322 189 0
2019-03-20 14:11:18 GMT 52.279881 -0.717590 28,000 328 182 0
2019-03-20 14:11:08 GMT 52.273079 -0.710405 28,000 322 212 0
2019-03-20 14:10:56 GMT 52.264179 -0.699765 28,000 318 184 0
2019-03-20 14:10:46 GMT 52.256756 -0.690541 28,000 312 179 0
2019-03-20 14:10:36 GMT 52.251213 -0.683363 28,000 314 219 0
2019-03-20 14:10:26 GMT 52.242622 -0.672489 28,000 320 166 0
2019-03-20 14:10:15 GMT 52.235363 -0.663354 28,000 318 166 0
2019-03-20 14:10:05 GMT 52.222309 -0.647300 28,000 325 179 0
2019-03-20 14:09:55 GMT 52.216053 -0.640350 28,000 326 147 0
2019-03-20 14:09:45 GMT 52.216053 -0.640350 28,000 315 189 0
2019-03-20 14:09:34 GMT 52.210052 -0.631280 28,000 329 168 0
2019-03-20 14:09:22 GMT 52.200230 -0.622703 28,000 317 161 0
2019-03-20 14:09:11 GMT 52.193310 -0.614032 28,000 322 176 0
2019-03-20 14:09:01 GMT 52.186668 -0.605898 28,000 332 163 0
2019-03-20 14:08:51 GMT 52.181393 -0.596655 28,000 308 215 0
2019-03-20 14:08:40 GMT 52.173061 -0.588529 28,000 321 186 0
2019-03-20 14:08:29 GMT 52.165642 -0.578938 28,000 320 197 0
2019-03-20 14:08:19 GMT 52.158131 -0.569725 28,000 321 213 0
2019-03-20 14:08:09 GMT 52.150440 -0.560563 28,000 320 193 0
2019-03-20 14:07:59 GMT 52.142540 -0.552247 28,000 327 191 0
2019-03-20 14:07:49 GMT 52.134838 -0.543929 28,000 326 223 0
2019-03-20 14:07:38 GMT 52.125916 -0.533367 28,000 325 204 0
2019-03-20 14:07:28 GMT 52.117455 -0.524360 28,000 324 217 0
2019-03-20 14:07:17 GMT 52.108280 -0.514414 28,000 325 235 0
2019-03-20 14:07:07 GMT 52.100235 -0.505082 28,000 327 273 0
2019-03-20 14:06:57 GMT 52.091068 -0.493611 28,000 325 247 0
2019-03-20 14:06:47 GMT 52.081776 -0.483640 28,000 326 246 0
2019-03-20 14:06:37 GMT 52.076038 -0.470230 28,000 335 312 0
2019-03-20 14:06:22 GMT 52.057087 -0.455554 28,000 322 233 0
2019-03-20 14:06:12 GMT 52.047504 -0.445015 28,000 325 254 0
2019-03-20 14:06:02 GMT 52.037796 -0.433740 28,000 326 262 0
2019-03-20 14:05:51 GMT 52.026184 -0.422877 28,000 323 276 0
2019-03-20 14:05:41 GMT 52.016201 -0.411649 28,000 324 237 0
2019-03-20 14:05:31 GMT 52.006485 -0.402382 28,000 330 208 0
2019-03-20 14:05:20 GMT 51.996147 -0.391252 28,000 316 280 0
2019-03-20 14:05:10 GMT 51.987469 -0.380019 28,000 323 235 0
2019-03-20 14:04:59 GMT 51.978416 -0.368517 28,000 315 237 0
2019-03-20 14:04:49 GMT 51.962101 -0.350243 28,000 322 208 0
2019-03-20 14:04:39 GMT 51.962101 -0.350243 28,000 308 225 0
2019-03-20 14:04:29 GMT 51.955097 -0.339745 28,000 334 182 0
2019-03-20 14:04:19 GMT 51.947632 -0.330594 28,000 333 182 0
2019-03-20 14:04:08 GMT 51.939907 -0.322469 28,000 319 205 0
2019-03-20 14:03:58 GMT 51.932388 -0.313281 28,000 318 204 0
2019-03-20 14:03:48 GMT 51.927002 -0.303875 28,000 334 276 0
2019-03-20 14:03:38 GMT 51.917950 -0.293558 28,000 334 216 0
2019-03-20 14:03:27 GMT 51.910564 -0.285411 28,000 329 197 0
2019-03-20 14:03:17 GMT 51.903320 -0.277365 28,000 340 181 0
2019-03-20 14:03:06 GMT 51.895271 -0.269002 28,000 324 192 0
2019-03-20 14:02:55 GMT 51.886139 -0.261430 28,000 330 179 0
2019-03-20 14:02:44 GMT 51.878044 -0.257075 28,000 308 224 0
2019-03-20 14:02:33 GMT 51.869926 -0.242599 28,000 328 173 0
2019-03-20 14:02:22 GMT 51.854954 -0.225138 28,000 311 174 0
2019-03-20 14:02:12 GMT 51.854954 -0.225138 28,000 325 178 0
2019-03-20 14:02:02 GMT 51.847317 -0.215794 28,000 319 216 0
2019-03-20 14:01:33 GMT 51.823051 -0.185256 28,000 317 186 0
2019-03-20 14:01:22 GMT 51.814430 -0.173626 28,000 322 231 0
2019-03-20 14:01:12 GMT 51.805893 -0.164322 28,000 332 237 0
2019-03-20 14:01:02 GMT 51.796928 -0.153050 28,000 321 226 0
2019-03-20 14:00:51 GMT 51.787659 -0.141726 28,000 331 230 0
2019-03-20 14:00:41 GMT 51.778076 -0.132872 28,000 330 264 0
2019-03-20 14:00:31 GMT 51.769218 -0.123995 28,000 326 259 0
2019-03-20 14:00:19 GMT 51.757771 -0.111754 28,000 330 263 0
2019-03-20 14:00:09 GMT 51.738037 -0.089517 28,000 325 233 0
2019-03-20 13:59:58 GMT 51.729202 -0.076222 28,000 313 232 0
2019-03-20 13:59:48 GMT 51.729202 -0.076222 28,000 320 224 0
2019-03-20 13:59:38 GMT 51.710495 -0.052285 28,000 317 254 0
2019-03-20 13:59:28 GMT 51.710495 -0.052285 28,000 321 245 0
2019-03-20 13:59:18 GMT 51.701359 -0.039207 28,000 317 231 0
2019-03-20 13:59:08 GMT 51.692780 -0.027953 28,000 314 279 0
2019-03-20 13:58:58 GMT 51.684067 -0.013406 28,000 321 253 0
2019-03-20 13:58:48 GMT 51.674877 -0.001602 28,000 317 251 0
2019-03-20 13:58:38 GMT 51.666492 0.010796 28,000 318 287 0
2019-03-20 13:58:27 GMT 51.645363 0.036949 28,000 324 257 0
2019-03-20 13:58:16 GMT 51.645363 0.036949 28,000 318 265 0
2019-03-20 13:58:06 GMT 51.636120 0.051946 28,000 322 260 0
2019-03-20 13:57:56 GMT 51.626675 0.062330 28,000 320 297 0
2019-03-20 13:57:46 GMT 51.606586 0.087918 28,000 329 225 0
2019-03-20 13:57:35 GMT 51.606586 0.087918 28,000 317 279 0
2019-03-20 13:57:25 GMT 51.597527 0.101802 28,000 318 274 0
2019-03-20 13:57:15 GMT 51.588669 0.114358 28,000 321 276 0
2019-03-20 13:57:05 GMT 51.579735 0.126655 28,000 309 298 0
2019-03-20 13:56:55 GMT 51.570354 0.141129 28,000 319 241 0
2019-03-20 13:56:45 GMT 51.554344 0.164890 28,000 317 223 0
2019-03-20 13:56:35 GMT 51.554344 0.164890 28,000 316 270 0
2019-03-20 13:56:25 GMT 51.544842 0.178877 28,000 319 247 0
2019-03-20 13:56:00 GMT 51.514629 0.221665 28,000 353 316 0
2019-03-20 13:55:49 GMT 51.504551 0.234006 28,000 320 255 0
2019-03-20 13:55:39 GMT 51.504551 0.234006 28,000 324 257 0
2019-03-20 13:55:29 GMT 51.495117 0.245084 28,000 328 261 0
2019-03-20 13:55:18 GMT 51.483849 0.257605 28,000 324 270 0
2019-03-20 13:55:08 GMT 51.473717 0.272304 28,000 320 267 0
2019-03-20 13:54:58 GMT 51.464104 0.284827 28,000 321 293 0
2019-03-20 13:54:48 GMT 51.454369 0.297548 28,000 322 277 0
2019-03-20 13:54:38 GMT 51.444893 0.314032 28,000 329 257 0
2019-03-20 13:54:27 GMT 51.434460 0.324953 28,000 317 222 0
2019-03-20 13:54:17 GMT 51.425945 0.339071 28,000 317 298 0
2019-03-20 13:54:06 GMT 51.415028 0.354498 28,000 315 284 0
2019-03-20 13:53:53 GMT 51.403320 0.369449 28,000 321 239 0
2019-03-20 13:53:43 GMT 51.394096 0.383341 28,000 316 295 0
2019-03-20 13:53:31 GMT 51.382652 0.400423 28,000 324 279 0
2019-03-20 13:53:20 GMT 51.372002 0.412417 28,000 318 221 0
2019-03-20 13:53:10 GMT 51.360943 0.421651 28,000 311 313 0
2019-03-20 13:53:00 GMT 51.352482 0.437448 28,000 325 291 0
2019-03-20 13:52:50 GMT 51.342144 0.449909 28,000 317 201 0
2019-03-20 13:52:40 GMT 51.332207 0.460541 28,000 317 291 0
2019-03-20 13:52:30 GMT 51.322704 0.474843 28,000 325 258 0
2019-03-20 13:52:20 GMT 51.313713 0.483309 28,000 312 287 0
2019-03-20 13:52:10 GMT 51.306587 0.500600 28,000 317 310 0
2019-03-20 13:52:00 GMT 51.292557 0.517735 28,000 321 226 0
2019-03-20 13:51:48 GMT 51.283958 0.527616 28,000 314 333 0
2019-03-20 13:51:38 GMT 51.274506 0.541377 28,000 315 326 0
2019-03-20 13:51:27 GMT 51.262630 0.559660 28,000 320 267 0
2019-03-20 13:51:17 GMT 51.242546 0.585284 28,000 323 245 0
2019-03-20 13:51:06 GMT 51.242546 0.585284 28,000 329 251 0
2019-03-20 13:50:56 GMT 51.233467 0.593410 28,000 333 203 0
2019-03-20 13:50:46 GMT 51.224854 0.600958 28,000 314 428 0
2019-03-20 13:50:35 GMT 51.201862 0.637282 28,000 317 273 0
2019-03-20 13:50:25 GMT 51.192532 0.649520 28,000 318 288 0
2019-03-20 13:50:15 GMT 51.192532 0.649520 28,000 296 440 0
2019-03-20 13:50:04 GMT 51.156044 0.714255 28,000 20 75 0
2019-03-20 13:49:52 GMT 51.156044 0.714255 28,000 20 75 0
2019-03-20 13:49:27 GMT 51.149837 0.705046 28,000 311 324 0
2019-03-20 13:49:14 GMT 51.137741 0.724118 28,000 315 380 0
2019-03-20 13:49:04 GMT 51.125614 0.739249 28,000 311 330 0
2019-03-20 13:48:54 GMT 51.115574 0.754013 28,000 324 233 0
2019-03-20 13:48:44 GMT 51.106831 0.764494 28,000 318 366 0
2019-03-20 13:48:32 GMT 51.092644 0.780672 28,000 319 227 0
2019-03-20 13:48:05 GMT 51.069477 0.811490 28,000 318 237 0
2019-03-20 13:47:54 GMT 51.057755 0.827731 28,000 317 279 0
2019-03-20 13:47:15 GMT 51.012600 1.001349 28,000 76 502 0
2019-03-20 13:46:54 GMT 51.000435 0.914053 28,000 356 128 0
2019-03-20 13:46:44 GMT 50.994633 0.917446 28,000 322 267 0
2019-03-20 13:46:33 GMT 50.983761 0.930514 28,000 328 275 0
2019-03-20 13:46:23 GMT 50.974827 0.940122 28,000 320 324 0
2019-03-20 13:46:13 GMT 50.952278 0.969294 28,000 314 237 0
2019-03-20 13:46:01 GMT 50.952278 0.969294 28,000 323 222 0
2019-03-20 13:45:31 GMT 50.915775 1.018553 28,000 305 422 0
2019-03-20 13:45:20 GMT 50.915775 1.018553 28,000 317 310 0
2019-03-20 13:45:10 GMT 50.905136 1.033911 28,000 314 337 0
2019-03-20 13:44:59 GMT 50.896053 1.044716 28,000 314 249 0
2019-03-20 13:44:48 GMT 50.887241 1.059160 28,000 318 279 0
2019-03-20 13:44:38 GMT 50.879185 1.066258 28,000 315 330 0
2019-03-20 13:44:27 GMT 50.867855 1.083382 28,000 322 297 0
2019-03-20 13:44:16 GMT 50.856487 1.094806 28,000 318 315 0
2019-03-20 13:44:05 GMT 50.845909 1.108691 28,000 321 186 0
2019-03-20 13:43:54 GMT 50.840015 1.111491 28,000 315 448 0
2019-03-20 13:43:44 GMT 50.825275 1.134645 28,000 325 136 0
2019-03-20 13:43:34 GMT 50.820042 1.140256 28,000 319 274 0
2019-03-20 13:43:21 GMT 50.793110 1.175889 28,000 319 232 0
2019-03-20 13:43:11 GMT 50.793110 1.175889 28,000 315 236 0
2019-03-20 13:43:00 GMT 50.784580 1.189353 28,000 322 269 0
2019-03-20 13:42:49 GMT 50.774517 1.202048 28,000 312 274 0
2019-03-20 13:42:38 GMT 50.761761 1.224558 28,000 325 182 0
2019-03-20 13:42:28 GMT 50.754822 1.232146 28,000 324 255 0
2019-03-20 13:42:18 GMT 50.735203 1.255085 28,000 324 258 0
2019-03-20 13:42:06 GMT 50.735203 1.255085 28,000 319 391 0
2019-03-20 13:41:55 GMT 50.720104 1.275601 28,000 327 200 0
2019-03-20 13:41:44 GMT 50.695255 1.303542 28,000 21 111 0
2019-03-20 13:41:27 GMT 50.695255 1.303542 28,000 317 206 0
2019-03-20 13:41:14 GMT 50.688286 1.309359 28,000 313 429 0
2019-03-20 13:41:04 GMT 50.674511 1.331952 28,000 320 237 0
2019-03-20 13:40:52 GMT 50.664368 1.345195 28,000 311 373 0
2019-03-20 13:40:42 GMT 50.652828 1.363530 28,000 322 188 0
2019-03-20 13:40:29 GMT 50.643764 1.374335 28,000 320 260 0
2019-03-20 13:40:19 GMT 50.624611 1.400213 28,000 317 350 0
2019-03-20 13:40:09 GMT 50.624611 1.400213 28,000 315 355 0
2019-03-20 13:39:59 GMT 50.613834 1.414665 28,000 327 186 0
2019-03-20 13:39:45 GMT 50.602570 1.427224 28,000 325 231 0
2019-03-20 13:39:34 GMT 50.594582 1.435138 28,000 322 271 0
2019-03-20 13:39:21 GMT 50.581581 1.450690 28,000 320 305 0
2019-03-20 13:39:08 GMT 50.570072 1.464308 28,000 319 337 0
2019-03-20 13:38:58 GMT 50.558220 1.480308 28,000 323 207 0
2019-03-20 13:38:43 GMT 50.554558 1.474291 28,000 315 392 0
2019-03-20 13:38:30 GMT 50.537426 1.504387 28,000 316 340 0
2019-03-20 13:38:20 GMT 50.524712 1.520260 28,000 314 342 0
2019-03-20 13:38:06 GMT 50.509171 1.544340 28,000 318 358 0
2019-03-20 13:37:55 GMT 50.498093 1.561941 28,000 318 334 0
2019-03-20 13:37:42 GMT 50.482983 1.582894 28,000 324 259 0
2019-03-20 13:37:32 GMT 50.472595 1.596267 28,000 328 195 0
2019-03-20 13:37:16 GMT 50.460251 1.608176 28,000 319 355 0
2019-03-20 13:37:06 GMT 50.449081 1.621844 28,000 323 276 0
2019-03-20 13:36:56 GMT 50.439705 1.633413 28,000 322 273 0
2019-03-20 13:36:43 GMT 50.424839 1.653140 28,000 322 205 0
2019-03-20 13:36:30 GMT 50.419537 1.659121 28,000 320 261 0
2019-03-20 13:36:12 GMT 50.402714 1.680871 28,000 317 330 0
2019-03-20 13:35:59 GMT 50.379475 1.712317 28,000 319 213 0
2019-03-20 13:35:48 GMT 50.379475 1.712317 28,000 319 239 0
2019-03-20 13:35:34 GMT 50.357616 1.741865 28,000 323 284 0
2019-03-20 13:35:22 GMT 50.357616 1.741865 28,000 322 310 0
2019-03-20 13:35:07 GMT 50.335091 1.772528 28,000 328 181 0
2019-03-20 13:34:46 GMT 50.320129 1.787166 28,000 324 184 0
2019-03-20 13:34:27 GMT 50.304214 1.804968 28,000 320 219 0
2019-03-20 13:34:16 GMT 50.299011 1.811590 28,000 314 460 0
2019-03-20 13:34:06 GMT 50.280411 1.838063 28,000 319 240 0
2019-03-20 13:33:52 GMT 50.269978 1.849085 28,000 315 363 0
2019-03-20 13:33:37 GMT 50.241165 1.892204 28,000 319 279 0
2019-03-20 13:33:25 GMT 50.241165 1.892204 28,000 323 243 0
2019-03-20 13:33:08 GMT 50.204525 1.944718 28,000 321 285 0
2019-03-20 13:32:49 GMT 50.204525 1.944718 28,000 338 186 0
2019-03-20 13:32:34 GMT 50.191998 1.951349 28,000 321 211 0
2019-03-20 13:32:24 GMT 50.184399 1.957011 28,000 319 260 0
2019-03-20 13:32:14 GMT 50.176655 1.970219 28,000 320 248 0
2019-03-20 13:32:04 GMT 50.149479 2.003218 28,000 320 246 0
2019-03-20 13:31:46 GMT 50.149479 2.003218 28,000 320 246 0
2019-03-20 13:31:14 GMT 50.123119 2.038316 28,000 322 285 0
2019-03-20 13:31:01 GMT 50.109146 2.055621 28,000 321 295 0
2019-03-20 13:30:49 GMT 50.096897 2.069736 28,000 320 283 0
2019-03-20 13:30:21 GMT 50.066135 2.108335 28,000 320 242 0
2019-03-20 13:30:07 GMT 50.050251 2.127330 28,000 318 195 0
2019-03-20 13:29:34 GMT 50.019588 2.173586 28,000 321 259 0
2019-03-20 13:29:27 GMT 50.007206 2.190585 28,000 322 262 0
2019-03-20 13:29:20 GMT 50.007206 2.190585 28,000 326 254 0
2019-03-20 13:29:14 GMT 50.002411 2.196894 28,000 326 254 0
2019-03-20 13:29:08 GMT 49.996078 2.207064 28,000 326 254 0
2019-03-20 13:29:02 GMT 49.982719 2.225919 28,000 333 254 0
2019-03-20 13:28:52 GMT 49.977596 2.230670 28,000 0 0 0
2019-03-20 13:28:47 GMT 49.977596 2.230670 28,000 0 0 0
2019-03-20 13:28:34 GMT 49.962982 2.245665 28,000 0 0 0
2019-03-20 13:28:28 GMT 49.956417 2.249673 28,000 0 0 0
2019-03-20 13:28:21 GMT 49.949108 2.254127 28,000 343 248 0
2019-03-20 13:28:08 GMT 49.934677 2.261625 28,000 342 256 0
2019-03-20 13:28:01 GMT 49.926716 2.264891 28,000 342 256 0
2019-03-20 13:27:50 GMT 49.913403 2.269864 28,000 341 260 0
2019-03-20 13:27:38 GMT 49.901207 2.275580 28,000 341 260 0
2019-03-20 13:27:28 GMT 49.879978 2.287012 28,000 341 260 0
2019-03-20 13:27:19 GMT 49.866711 2.294584 28,000 341 260 0
2019-03-20 13:27:08 GMT 49.866711 2.294584 28,000 341 260 0
2019-03-20 13:27:01 GMT 49.862103 2.298518 28,000 341 260 0
2019-03-20 13:26:53 GMT 49.847389 2.307574 28,000 0 0 0
2019-03-20 13:26:48 GMT 49.847389 2.307574 28,000 0 0 0
2019-03-20 13:26:35 GMT 49.830585 2.316928 28,000 343 259 0
2019-03-20 13:26:30 GMT 49.825886 2.319303 28,000 343 259 0
2019-03-20 13:26:11 GMT 49.802982 2.331106 28,000 342 251 0
2019-03-20 13:26:06 GMT 49.798512 2.333333 28,000 342 251 0
2019-03-20 13:25:55 GMT 49.785896 2.338009 28,000 342 251 0
2019-03-20 13:25:45 GMT 49.773281 2.343577 28,000 342 251 0
2019-03-20 13:25:39 GMT 49.766392 2.346769 28,000 342 251 0
2019-03-20 13:25:34 GMT 49.760201 2.349515 28,000 342 251 0
2019-03-20 13:25:24 GMT 49.749584 2.354266 28,000 342 251 0
2019-03-20 13:25:12 GMT 49.737110 2.360799 28,000 342 251 0
2019-03-20 13:25:06 GMT 49.730499 2.364436 28,000 342 251 0
2019-03-20 13:24:55 GMT 49.716301 2.374235 28,000 342 251 0
2019-03-20 13:24:43 GMT 49.702522 2.382697 28,000 342 251 0
2019-03-20 13:24:34 GMT 49.693722 2.387671 28,000 342 251 0
2019-03-20 13:24:27 GMT 49.684879 2.391976 28,000 342 251 0
2019-03-20 13:24:21 GMT 49.678314 2.395613 28,000 344 253 0
2019-03-20 13:24:16 GMT 49.665001 2.403334 28,000 344 253 0
2019-03-20 13:24:03 GMT 49.658714 2.406600 28,000 344 253 0
2019-03-20 13:23:52 GMT 49.646984 2.412835 28,000 344 253 0
2019-03-20 13:23:45 GMT 49.638977 2.416398 28,000 344 253 0
2019-03-20 13:23:40 GMT 49.633717 2.418477 28,000 344 253 0
2019-03-20 13:23:34 GMT 49.627014 2.421075 28,000 342 247 0
2019-03-20 13:23:26 GMT 49.617981 2.425083 28,000 342 247 0
2019-03-20 13:23:17 GMT 49.606716 2.430577 28,000 342 247 0
2019-03-20 13:23:12 GMT 49.599686 2.433694 28,000 342 247 0
2019-03-20 13:23:00 GMT 49.588795 2.438074 28,000 342 247 0
2019-03-20 13:22:53 GMT 49.570591 2.447502 28,000 342 247 0
2019-03-20 13:22:45 GMT 49.570591 2.447502 28,000 342 247 0
2019-03-20 13:22:39 GMT 49.564819 2.451065 28,000 342 247 0
2019-03-20 13:22:24 GMT 49.548618 2.459898 28,000 342 247 0
2019-03-20 13:22:15 GMT 49.539124 2.465169 28,000 342 247 0
2019-03-20 13:22:10 GMT 49.527206 2.472518 28,000 342 247 0
2019-03-20 13:21:59 GMT 49.520596 2.476378 28,000 342 244 0
2019-03-20 13:21:47 GMT 49.509003 2.483727 28,000 342 244 0
2019-03-20 13:21:35 GMT 49.494900 2.490705 28,000 342 244 0
2019-03-20 13:21:27 GMT 49.487217 2.494787 28,000 342 244 0
2019-03-20 13:21:11 GMT 49.468502 2.503324 28,000 342 244 0
2019-03-20 13:21:03 GMT 49.459797 2.507407 28,000 342 244 0
2019-03-20 13:20:57 GMT 49.452908 2.510302 28,000 342 244 0
2019-03-20 13:20:44 GMT 49.440201 2.515869 28,000 343 243 0
2019-03-20 13:20:30 GMT 49.425209 2.523169 28,000 343 243 0
2019-03-20 13:20:24 GMT 49.417713 2.527506 28,000 343 243 0
2019-03-20 13:20:09 GMT 49.400490 2.538565 28,000 343 243 0
2019-03-20 13:20:02 GMT 49.392391 2.544275 28,000 343 243 0
2019-03-20 13:19:49 GMT 49.379311 2.552803 28,000 343 243 0
2019-03-20 13:19:43 GMT 49.374283 2.555333 28,000 345 249 0
2019-03-20 13:19:31 GMT 49.360596 2.562633 28,000 345 249 0
2019-03-20 13:19:17 GMT 49.346302 2.569283 28,000 345 249 0
2019-03-20 13:19:10 GMT 49.337505 2.572969 28,000 345 249 0
2019-03-20 13:18:56 GMT 49.322979 2.577306 28,000 342 254 0
2019-03-20 13:18:50 GMT 49.314507 2.580414 28,000 342 254 0
2019-03-20 13:18:43 GMT 49.309200 2.582076 28,000 335 256 0
2019-03-20 13:18:30 GMT 49.293514 2.588003 28,000 335 256 0
2019-03-20 13:18:18 GMT 49.280479 2.593713 28,000 335 256 0
2019-03-20 13:18:11 GMT 49.272610 2.598267 28,000 335 256 0
2019-03-20 13:18:04 GMT 49.264881 2.602820 28,000 335 256 0
2019-03-20 13:17:57 GMT 49.256504 2.608892 28,000 335 256 0
2019-03-20 13:17:50 GMT 49.249519 2.614602 28,000 335 256 0
2019-03-20 13:17:38 GMT 49.237415 2.625732 28,000 335 256 0
2019-03-20 13:17:32 GMT 49.231319 2.630792 28,000 335 256 0
2019-03-20 13:17:22 GMT 49.218006 2.641417 28,000 336 253 0
2019-03-20 13:17:16 GMT 49.212700 2.644597 28,000 336 253 0
2019-03-20 13:17:06 GMT 49.202175 2.651970 28,000 337 258 0
2019-03-20 13:16:58 GMT 49.193985 2.658330 28,000 337 258 0
2019-03-20 13:16:53 GMT 49.189796 2.661077 28,000 337 258 0
2019-03-20 13:16:46 GMT 49.182392 2.666136 28,000 337 258 0
2019-03-20 13:16:31 GMT 49.165215 2.677628 28,000 337 259 0
2019-03-20 13:16:24 GMT 49.158512 2.682399 28,000 333 256 -256
2019-03-20 13:16:15 GMT 49.149200 2.687892 28,000 333 256 -256
2019-03-20 13:16:05 GMT 49.137005 2.695698 28,000 333 256 -256
2019-03-20 13:15:59 GMT 49.120712 2.704877 28,000 333 256 -256
2019-03-20 13:15:50 GMT 49.120712 2.704877 28,000 333 256 -256
2019-03-20 13:15:45 GMT 49.114288 2.709720 28,000 333 256 -256
2019-03-20 13:15:33 GMT 49.101112 2.719478 28,000 337 243 0
2019-03-20 13:15:25 GMT 49.087986 2.732415 28,000 337 243 0
2019-03-20 13:15:19 GMT 49.087986 2.732415 28,000 337 243 0
2019-03-20 13:15:12 GMT 49.080723 2.738776 28,000 337 243 0
2019-03-20 13:15:04 GMT 49.072392 2.745426 28,000 337 243 0
2019-03-20 13:14:57 GMT 49.066105 2.749907 28,000 337 243 0
2019-03-20 13:14:52 GMT 49.060005 2.754316 28,000 334 250 0
2019-03-20 13:14:45 GMT 49.051720 2.759592 28,000 334 250 0
2019-03-20 13:14:40 GMT 49.046600 2.762700 28,000 334 250 0
2019-03-20 13:14:32 GMT 49.038502 2.765374 28,000 334 250 0
2019-03-20 13:14:21 GMT 49.028214 2.772819 28,000 334 250 0
2019-03-20 13:14:15 GMT 49.017784 2.780481 28,000 334 250 0
2019-03-20 13:14:10 GMT 49.017784 2.780481 28,000 334 250 0
2019-03-20 13:14:05 GMT 49.011497 2.785106 28,000 334 250 0
2019-03-20 13:13:57 GMT 49.003910 2.790311 28,000 334 248 0
2019-03-20 13:13:51 GMT 48.995579 2.796021 28,000 335 250 0
2019-03-20 13:13:44 GMT 48.989620 2.800429 28,000 335 250 0
2019-03-20 13:13:38 GMT 48.984592 2.804405 28,000 335 250 0
2019-03-20 13:13:31 GMT 48.977425 2.809826 28,000 335 250 0
2019-03-20 13:13:24 GMT 48.969185 2.816475 28,000 335 250 0
2019-03-20 13:13:18 GMT 48.963085 2.822113 28,000 335 250 0
2019-03-20 13:13:11 GMT 48.955078 2.828618 28,000 335 250 0
2019-03-20 13:13:05 GMT 48.950191 2.832304 28,000 335 250 0
2019-03-20 13:12:59 GMT 48.944881 2.836713 28,000 335 250 0
2019-03-20 13:12:53 GMT 48.937714 2.842496 28,000 336 252 0
2019-03-20 13:12:45 GMT 48.928684 2.849579 28,000 336 252 0
2019-03-20 13:12:38 GMT 48.922493 2.854132 28,000 337 253 0
2019-03-20 13:12:29 GMT 48.912716 2.861216 28,000 335 250 0
2019-03-20 13:12:21 GMT 48.896702 2.871118 28,000 335 250 0
2019-03-20 13:12:13 GMT 48.896702 2.871118 28,000 335 250 0
2019-03-20 13:12:08 GMT 48.890697 2.873286 28,000 335 250 0
2019-03-20 13:12:03 GMT 48.883991 2.877189 28,000 335 250 0
2019-03-20 13:11:48 GMT 48.869701 2.886296 28,000 335 250 0
2019-03-20 13:11:40 GMT 48.860207 2.893307 28,000 333 254 0
2019-03-20 13:11:33 GMT 48.851219 2.898728 28,000 333 254 0
2019-03-20 13:11:27 GMT 48.848103 2.900824 28,000 333 257 0
2019-03-20 13:11:19 GMT 48.839909 2.907185 31,825 333 257 0
2019-03-20 13:11:12 GMT 48.830505 2.914774 28,000 333 257 0
2019-03-20 13:11:06 GMT 48.826595 2.918533 28,000 336 259 0
2019-03-20 13:10:59 GMT 48.818310 2.924965 28,000 336 259 0
2019-03-20 13:10:51 GMT 48.809696 2.932482 28,000 336 259 0
2019-03-20 13:10:46 GMT 48.804623 2.936602 28,000 336 259 0
2019-03-20 13:10:39 GMT 48.797081 2.942023 28,000 336 259 0
2019-03-20 13:10:30 GMT 48.781719 2.953226 28,000 338 254 0
2019-03-20 13:10:25 GMT 48.775108 2.958069 28,000 338 254 0
2019-03-20 13:10:19 GMT 48.775108 2.958069 28,000 338 254 0
2019-03-20 13:10:08 GMT 48.764122 2.965224 28,000 338 254 0
2019-03-20 13:09:57 GMT 48.752110 2.972525 28,000 335 254 0
2019-03-20 13:09:49 GMT 48.743500 2.977223 28,000 335 254 0
2019-03-20 13:09:37 GMT 48.729019 2.986619 28,000 335 248 0
2019-03-20 13:09:25 GMT 48.716080 2.996015 28,000 335 248 0
2019-03-20 13:09:13 GMT 48.704300 3.004905 28,000 335 248 0
2019-03-20 13:09:07 GMT 48.697506 3.009893 28,000 335 248 0
2019-03-20 13:08:53 GMT 48.683487 3.020818 28,000 335 248 0
2019-03-20 13:08:47 GMT 48.676510 3.026300 28,000 335 248 0
2019-03-20 13:08:37 GMT 48.665897 3.033889 28,000 335 248 0
2019-03-20 13:08:23 GMT 48.650021 3.046032 28,000 335 248 0
2019-03-20 13:08:11 GMT 48.639687 3.052681 28,000 335 248 0
2019-03-20 13:08:06 GMT 48.633404 3.057018 28,000 335 248 0
2019-03-20 13:07:51 GMT 48.619110 3.066993 28,000
We lost coverage of the aircraft here for a total of 16 minutes
2019-03-20 12:51:46 GMT 47.591026 3.775304 28,000 335 253 0
2019-03-20 12:51:46 GMT 47.591026 3.775304 28,000 348 242 0
2019-03-20 12:49:09 GMT 47.424107 3.888560 28,000 348 242 0
2019-03-20 12:48:47 GMT 47.399761 3.905133 28,000 4 234 0
We lost coverage of the aircraft here for a total of 28 minutes
2019-03-20 12:20:35 GMT 45.569798 4.656346 28,000 4 234 0
2019-03-20 12:20:35 GMT 45.569798 4.656346 28,000 4 234 0
We lost coverage of the aircraft here for a total of 17 minutes
2019-03-20 12:03:54 GMT 44.438751 4.768326 28,000 4 234 0
2019-03-20 12:03:54 GMT 44.438751 4.768326 28,000 1 234 0
2019-03-20 12:02:09 GMT 44.324623 4.755334 28,000 0 226 0
2019-03-20 12:01:57 GMT 44.300556 4.754395 28,000 1 221 240
2019-03-20 12:01:46 GMT 44.300556 4.754395 28,000 3 225 720
2019-03-20 12:01:35 GMT 44.289341 4.753718 28,000 4 233
2019-03-20 12:01:22 GMT 44.275421 4.752372 27,900 4 256

Making use of Plane Finder data

You are free to use the raw flight data, aircraft information and images provided in this report for your own purposes provided the data is correctly attributed to Plane Finder. We ask that you please credit Plane Finder and link to planefinder.net in close proximity to the content.

Optionally one of the following logos (no smaller then 150x24px) can be used and must link to planefinder.net

Embedding the Plane Finder map

You are welcome to embed the Plane Finder playback map on your website to offer visitors a more interactive experience. We suggest using the following HTML code:

<iframe src="//planefinder.net/data/report/N907DB-N907DB-7700-squawk-2019-03-20/map" width="800" height="600" seamless="seamless"></iframe>

Where our data comes from

Plane Finder has a global network of data feeds and antenna radars that receive data broadcast directly from aircraft. The primary technologies used are ADS-B and MLAT. We also show feeds from the FAA and a FLARM glider feed.

Click here to find out more about the Plane Finder network.

How we collect our data